createdAt,value
2023-05-18T00:00:31.789Z,77.5596
2023-05-18T00:01:39.841Z,79.8424
2023-05-18T00:02:48.221Z,77.6352
2023-05-18T00:03:56.274Z,77.1852
2023-05-18T00:05:04.348Z,79.1993
2023-05-18T00:06:12.292Z,77.5515
2023-05-18T00:07:20.345Z,79.1302
2023-05-18T00:08:28.393Z,79.5772
2023-05-18T00:09:36.549Z,79.0286
2023-05-18T00:10:44.547Z,79.7434
2023-05-18T00:11:52.576Z,78.5300
2023-05-18T00:13:00.866Z,78.4232
2023-05-18T00:14:08.591Z,77.0870
2023-05-18T00:15:16.692Z,79.4986
2023-05-18T00:16:24.817Z,78.6147
2023-05-18T00:17:32.979Z,76.7767
2023-05-18T00:18:41.153Z,78.1405
2023-05-18T00:19:49.034Z,78.5635
2023-05-18T00:20:57.351Z,77.4367
2023-05-18T00:22:05.182Z,78.2003
2023-05-18T00:23:13.222Z,76.9483
2023-05-18T00:24:21.305Z,76.4567
2023-05-18T00:25:29.522Z,77.6526
2023-05-18T00:26:37.583Z,77.5080
2023-05-18T00:27:45.503Z,77.7105
2023-05-18T00:28:53.445Z,77.3172
2023-05-18T00:30:01.513Z,77.0850
2023-05-18T00:31:09.598Z,77.1950
2023-05-18T00:32:17.846Z,77.5051
2023-05-18T00:33:25.844Z,77.8663
2023-05-18T00:34:33.870Z,79.1126
2023-05-18T00:35:41.992Z,78.1501
2023-05-18T00:36:50.144Z,78.6386
2023-05-18T00:37:58.206Z,77.7857
2023-05-18T00:39:06.147Z,78.2940
2023-05-18T00:40:14.239Z,78.3511
2023-05-18T00:41:22.329Z,77.5688
2023-05-18T00:42:30.325Z,77.7139
2023-05-18T00:43:38.314Z,77.7322
2023-05-18T00:44:46.334Z,77.5482
2023-05-18T00:45:54.446Z,77.5453
2023-05-18T00:47:02.597Z,77.9124
2023-05-18T00:48:10.703Z,77.9059
2023-05-18T00:49:18.788Z,78.0896
2023-05-18T00:50:27.038Z,77.9771
2023-05-18T00:51:34.872Z,78.3548
2023-05-18T00:52:43.119Z,77.8590
2023-05-18T00:53:50.980Z,78.1147
2023-05-18T00:54:59.108Z,78.8521
2023-05-18T00:56:07.085Z,78.5508
2023-05-18T00:57:15.181Z,78.8818
2023-05-18T00:58:23.110Z,78.7822
2023-05-18T00:59:31.147Z,78.4325
2023-05-18T01:00:39.266Z,78.4184
2023-05-18T01:01:47.433Z,78.4923
2023-05-18T01:02:55.591Z,79.1834
2023-05-18T01:04:03.592Z,81.5455
2023-05-18T01:05:11.648Z,80.2762
2023-05-18T01:06:19.722Z,79.2161
2023-05-18T01:07:27.764Z,79.5731
2023-05-18T01:08:35.905Z,80.9393
2023-05-18T01:09:43.902Z,79.8461
2023-05-18T01:10:51.927Z,79.4047
2023-05-18T01:12:00.140Z,79.6138
2023-05-18T01:13:07.940Z,79.6939
2023-05-18T01:14:16.024Z,79.5068
2023-05-18T01:15:24.072Z,80.7901
2023-05-18T01:16:32.216Z,82.8794
2023-05-18T01:17:40.459Z,79.1097
2023-05-18T01:18:48.591Z,78.8043
2023-05-18T01:19:56.457Z,78.8739
2023-05-18T01:21:04.535Z,80.6025
2023-05-18T01:22:12.601Z,81.1715
2023-05-18T01:23:20.782Z,80.2676
2023-05-18T01:24:28.738Z,79.4515
2023-05-18T01:25:36.782Z,79.2054
2023-05-18T01:26:45.053Z,79.1418
2023-05-18T01:27:52.817Z,79.2629
2023-05-18T01:29:00.897Z,78.8836
2023-05-18T01:30:08.941Z,78.5576
2023-05-18T01:31:17.146Z,79.3052
2023-05-18T01:32:25.223Z,79.0618
2023-05-18T01:33:33.217Z,78.6173
2023-05-18T01:34:41.631Z,79.0844
2023-05-18T01:35:49.385Z,79.4200
2023-05-18T01:36:57.432Z,79.3379
2023-05-18T01:38:05.536Z,78.9545
2023-05-18T01:39:13.653Z,78.8940
2023-05-18T01:40:21.676Z,79.0005
2023-05-18T01:41:29.721Z,79.3977
2023-05-18T01:42:37.630Z,79.0852
2023-05-18T01:43:45.679Z,79.2441
2023-05-18T01:44:53.780Z,79.1389
2023-05-18T01:46:02.077Z,79.0811
2023-05-18T01:47:10.128Z,78.9162
2023-05-18T01:48:18.124Z,79.8228
2023-05-18T01:49:26.232Z,80.4374
2023-05-18T01:50:34.367Z,80.1098
2023-05-18T01:51:42.316Z,79.9728
2023-05-18T01:52:50.325Z,79.8900
2023-05-18T01:53:58.457Z,80.6859
2023-05-18T01:55:06.475Z,80.8905
2023-05-18T01:56:14.544Z,78.9897
2023-05-18T01:57:22.497Z,80.0060
2023-05-18T01:58:30.569Z,80.6922
2023-05-18T01:59:38.609Z,81.2816
2023-05-18T02:00:46.821Z,80.5849
2023-05-18T02:01:59.112Z,80.5366
2023-05-18T02:03:07.905Z,80.4270
2023-05-18T02:04:15.982Z,80.8805
2023-05-18T02:05:23.938Z,79.4712
2023-05-18T02:06:32.195Z,79.4054
2023-05-18T02:07:40.080Z,79.7402
2023-05-18T02:08:48.196Z,81.5523
2023-05-18T02:09:56.206Z,79.2110
2023-05-18T02:11:04.153Z,78.9322
2023-05-18T02:12:12.246Z,79.6160
2023-05-18T02:13:20.284Z,80.2413
2023-05-18T02:14:28.507Z,80.0118
2023-05-18T02:15:36.527Z,79.9003
2023-05-18T02:16:44.705Z,80.2050
2023-05-18T02:17:52.606Z,78.7883
2023-05-18T02:19:00.766Z,79.0082
2023-05-18T02:20:08.872Z,79.0168
2023-05-18T02:21:16.879Z,79.3108
2023-05-18T02:22:24.953Z,78.8809
2023-05-18T02:23:33.131Z,79.0669
2023-05-18T02:24:40.943Z,80.5387
2023-05-18T02:25:49.016Z,80.6977
2023-05-18T02:26:57.085Z,82.4933
2023-05-18T02:28:05.244Z,81.7534
2023-05-18T02:29:13.384Z,80.8292
2023-05-18T02:30:21.362Z,79.7150
2023-05-18T02:31:29.742Z,80.5770
2023-05-18T02:32:37.547Z,78.5915
2023-05-18T02:33:45.578Z,78.6486
2023-05-18T02:34:53.627Z,79.4808
2023-05-18T02:36:01.691Z,80.6098
2023-05-18T02:37:09.799Z,81.3464
2023-05-18T02:38:17.826Z,79.8922
2023-05-18T02:39:25.742Z,81.3054
2023-05-18T02:40:33.839Z,82.9445
2023-05-18T02:41:41.900Z,81.7862
2023-05-18T02:42:50.099Z,80.4857
2023-05-18T02:43:58.174Z,80.6482
2023-05-18T02:45:06.217Z,81.8032
2023-05-18T02:46:14.383Z,81.2789
2023-05-18T02:47:22.559Z,80.6448
2023-05-18T02:48:30.451Z,79.8983
2023-05-18T02:49:38.507Z,81.8872
2023-05-18T02:50:46.536Z,81.3552
2023-05-18T02:51:54.606Z,82.3500
2023-05-18T02:53:02.670Z,81.4345
2023-05-18T02:54:10.634Z,80.5471
2023-05-18T02:55:18.647Z,80.0037
2023-05-18T02:56:26.708Z,81.0872
2023-05-18T02:57:34.896Z,79.9542
2023-05-18T02:58:42.958Z,81.2500
2023-05-18T02:59:51.119Z,81.1688
2023-05-18T03:00:59.307Z,81.5650
2023-05-18T03:02:07.194Z,81.1617
2023-05-18T03:03:15.520Z,81.4701
2023-05-18T03:04:23.283Z,81.9421
2023-05-18T03:05:31.560Z,80.9204
2023-05-18T03:06:39.434Z,81.4860
2023-05-18T03:07:47.491Z,81.8992
2023-05-18T03:08:55.422Z,82.9121
2023-05-18T03:10:03.497Z,82.6262
2023-05-18T03:11:11.587Z,82.1653
2023-05-18T03:12:19.719Z,83.4115
2023-05-18T03:13:27.964Z,83.2137
2023-05-18T03:14:35.915Z,83.3114
2023-05-18T03:15:43.958Z,82.9146
2023-05-18T03:16:52.090Z,82.4224
2023-05-18T03:19:08.227Z,82.2673
2023-05-18T03:20:16.229Z,83.1271
2023-05-18T03:21:24.297Z,83.8298
2023-05-18T03:22:32.359Z,82.0351
2023-05-18T03:23:40.264Z,83.4605
2023-05-18T03:24:48.287Z,82.8014
2023-05-18T03:25:56.392Z,82.5229
2023-05-18T03:27:04.566Z,81.6672
2023-05-18T03:28:12.841Z,81.1765
2023-05-18T03:29:20.712Z,81.0476
2023-05-18T03:30:28.865Z,81.5945
2023-05-18T03:31:36.880Z,82.9204
2023-05-18T03:32:44.970Z,83.7772
2023-05-18T03:33:53.107Z,82.3219
2023-05-18T03:35:01.249Z,82.8904
2023-05-18T03:36:09.089Z,83.7154
2023-05-18T03:37:17.215Z,82.3225
2023-05-18T03:38:25.183Z,82.7429
2023-05-18T03:39:33.293Z,81.5700
2023-05-18T03:40:41.312Z,82.1096
2023-05-18T03:41:49.514Z,82.7689
2023-05-18T03:42:57.569Z,82.9902
2023-05-18T03:44:05.790Z,82.5284
2023-05-18T03:45:13.726Z,81.6964
2023-05-18T03:46:21.808Z,82.2316
2023-05-18T03:47:29.849Z,82.6907
2023-05-18T03:48:37.872Z,82.8808
2023-05-18T03:49:46.022Z,81.8941
2023-05-18T03:50:54.059Z,81.9564
2023-05-18T03:52:02.204Z,83.5707
2023-05-18T03:53:10.003Z,83.8537
2023-05-18T03:54:18.080Z,83.0677
2023-05-18T03:55:26.137Z,81.7749
2023-05-18T03:56:34.416Z,81.8425
2023-05-18T03:57:42.737Z,81.9459
2023-05-18T03:58:50.484Z,82.9699
2023-05-18T03:59:58.691Z,83.1068
2023-05-18T04:01:06.633Z,82.4566
2023-05-18T04:02:14.885Z,83.9416
2023-05-18T04:03:22.808Z,83.7037
2023-05-18T04:04:30.783Z,82.2892
2023-05-18T04:05:38.815Z,83.3273
2023-05-18T04:06:46.886Z,83.7171
2023-05-18T04:07:54.912Z,81.4978
2023-05-18T04:09:02.928Z,81.8656
2023-05-18T04:10:11.020Z,81.9100
2023-05-18T04:11:19.193Z,81.6894
2023-05-18T04:12:27.340Z,81.8535
2023-05-18T04:13:35.394Z,82.1296
2023-05-18T04:14:43.442Z,82.3824
2023-05-18T04:15:51.614Z,82.1062
2023-05-18T04:16:59.624Z,81.9117
2023-05-18T04:18:07.712Z,81.4678
2023-05-18T04:19:15.981Z,81.8912
2023-05-18T04:20:23.746Z,81.4397
2023-05-18T04:21:31.826Z,82.0868
2023-05-18T04:22:39.746Z,82.3480
2023-05-18T04:23:47.832Z,82.4043
2023-05-18T04:24:55.899Z,82.0895
2023-05-18T04:26:04.046Z,81.1698
2023-05-18T04:27:12.174Z,81.5941
2023-05-18T04:28:20.239Z,81.4772
2023-05-18T04:29:28.254Z,80.9223
2023-05-18T04:30:36.411Z,80.6882
2023-05-18T04:31:44.493Z,79.7841
2023-05-18T04:32:52.530Z,81.2863
2023-05-18T04:34:00.587Z,82.2966
2023-05-18T04:35:08.600Z,81.4473
2023-05-18T04:36:17.380Z,80.3056
2023-05-18T04:37:24.626Z,81.3240
2023-05-18T04:38:32.706Z,80.3242
2023-05-18T04:39:40.747Z,80.1549
2023-05-18T04:40:49.079Z,80.7319
2023-05-18T04:41:57.028Z,80.5623
2023-05-18T04:43:05.139Z,80.9715
2023-05-18T04:44:13.470Z,80.2383
2023-05-18T04:45:21.201Z,80.6897
2023-05-18T04:46:29.333Z,81.6090
2023-05-18T04:47:37.369Z,79.8789
2023-05-18T04:48:45.415Z,80.1926
2023-05-18T04:49:53.533Z,80.3537
2023-05-18T04:51:01.563Z,80.4185
2023-05-18T04:52:09.476Z,79.7783
2023-05-18T04:53:17.594Z,80.4810
2023-05-18T04:54:25.581Z,80.5340
2023-05-18T04:55:33.976Z,83.6589
2023-05-18T04:56:41.979Z,80.6429
2023-05-18T04:57:49.926Z,78.5065
2023-05-18T04:58:58.070Z,79.1966
2023-05-18T05:00:06.086Z,79.3608
2023-05-18T05:01:14.190Z,79.4559
2023-05-18T05:02:22.338Z,78.8440
2023-05-18T05:03:30.669Z,78.4875
2023-05-18T05:04:38.402Z,79.9482
2023-05-18T05:05:46.429Z,79.6858
2023-05-18T05:06:54.356Z,79.1163
2023-05-18T05:08:02.416Z,78.7681
2023-05-18T05:09:10.480Z,80.5699
2023-05-18T05:10:18.737Z,80.7375
2023-05-18T05:11:26.886Z,78.6861
2023-05-18T05:12:34.920Z,77.5926
2023-05-18T05:13:42.886Z,78.3770
2023-05-18T05:14:51.028Z,78.6244
2023-05-18T05:15:59.181Z,79.6687
2023-05-18T05:17:07.090Z,78.5383
2023-05-18T05:18:15.405Z,79.2925
2023-05-18T05:19:23.390Z,78.2135
2023-05-18T05:20:31.334Z,78.0863
2023-05-18T05:21:39.264Z,79.7879
2023-05-18T05:22:47.389Z,80.4231
2023-05-18T05:23:55.369Z,78.8546
2023-05-18T05:25:05.869Z,78.8330
2023-05-18T05:26:16.486Z,76.6100
2023-05-18T05:27:24.601Z,76.8377
2023-05-18T05:28:32.761Z,78.2932
2023-05-18T05:29:40.720Z,79.0806
2023-05-18T05:30:48.731Z,77.1393
2023-05-18T05:31:56.931Z,80.2830
2023-05-18T05:33:04.966Z,79.4716
2023-05-18T05:34:12.938Z,77.0547
2023-05-18T05:35:21.051Z,78.5824
2023-05-18T05:36:28.946Z,76.8024
2023-05-18T05:37:37.048Z,77.2745
2023-05-18T05:38:45.274Z,77.2691
2023-05-18T05:39:53.346Z,76.3794
2023-05-18T05:41:01.340Z,75.9833
2023-05-18T05:42:09.412Z,76.4267
2023-05-18T05:43:17.512Z,76.1159
2023-05-18T05:44:25.697Z,76.2765
2023-05-18T05:45:33.836Z,76.6167
2023-05-18T05:46:41.770Z,76.2769
2023-05-18T05:47:49.793Z,76.8114
2023-05-18T05:48:57.839Z,78.4625
2023-05-18T05:50:05.794Z,78.1377
2023-05-18T05:51:13.811Z,74.7031
2023-05-18T05:52:21.890Z,75.5255
2023-05-18T05:53:30.120Z,74.5003
2023-05-18T05:54:38.136Z,73.7091
2023-05-18T05:55:46.252Z,74.2975
2023-05-18T05:56:54.255Z,76.7623
2023-05-18T05:58:02.314Z,79.8548
2023-05-18T05:59:10.623Z,74.3564
2023-05-18T06:00:18.636Z,74.4102
2023-05-18T06:01:26.588Z,73.6246
2023-05-18T06:02:34.678Z,74.5648
2023-05-18T06:03:42.693Z,75.0778
2023-05-18T06:04:50.625Z,74.8927
2023-05-18T06:05:58.689Z,73.5681
2023-05-18T06:07:06.802Z,74.0220
2023-05-18T06:08:14.927Z,75.5790
2023-05-18T06:09:23.030Z,74.6871
2023-05-18T06:10:31.076Z,75.2961
2023-05-18T06:11:39.150Z,75.2350
2023-05-18T06:12:47.271Z,76.0446
2023-05-18T06:13:55.269Z,78.0124
2023-05-18T06:15:03.343Z,78.8606
2023-05-18T06:16:11.645Z,78.7170
2023-05-18T06:17:19.421Z,78.4212
2023-05-18T06:18:27.668Z,77.8786
2023-05-18T06:19:35.452Z,75.0724
2023-05-18T06:20:43.513Z,74.8763
2023-05-18T06:21:51.597Z,75.5360
2023-05-18T06:22:59.682Z,74.8530
2023-05-18T06:24:07.885Z,74.9095
2023-05-18T06:25:15.885Z,74.2046
2023-05-18T06:26:24.099Z,74.7003
2023-05-18T06:27:32.032Z,74.8362
2023-05-18T06:28:40.081Z,75.7141
2023-05-18T06:29:48.189Z,76.3213
2023-05-18T06:30:56.244Z,75.9832
2023-05-18T06:32:04.269Z,76.8335
2023-05-18T06:33:12.495Z,74.8125
2023-05-18T06:34:20.264Z,74.1181
2023-05-18T06:35:28.423Z,75.7055
2023-05-18T06:36:36.392Z,75.1284
2023-05-18T06:37:46.781Z,76.7812
2023-05-18T06:38:57.459Z,75.0280
2023-05-18T06:40:05.588Z,74.5367
2023-05-18T06:41:13.746Z,75.2647
2023-05-18T06:42:21.830Z,73.1357
2023-05-18T06:43:29.774Z,73.9848
2023-05-18T06:44:37.805Z,74.0693
2023-05-18T06:45:45.906Z,74.8115
2023-05-18T06:46:54.001Z,74.0773
2023-05-18T06:48:02.126Z,75.0065
2023-05-18T06:49:09.946Z,74.3210
2023-05-18T06:50:17.992Z,76.3187
2023-05-18T06:51:26.213Z,78.2568
2023-05-18T06:52:34.372Z,74.3839
2023-05-18T06:53:42.375Z,73.4822
2023-05-18T06:54:50.403Z,74.1291
2023-05-18T06:55:58.479Z,74.2787
2023-05-18T06:57:06.543Z,75.0020
2023-05-18T06:58:14.769Z,75.3990
2023-05-18T06:59:22.669Z,75.9729
2023-05-18T07:00:30.808Z,75.0184
2023-05-18T07:01:38.896Z,73.3965
2023-05-18T07:02:46.758Z,74.7619
2023-05-18T07:03:54.895Z,73.2340
2023-05-18T07:05:02.879Z,75.2468
2023-05-18T07:06:11.087Z,73.5791
2023-05-18T07:07:19.156Z,72.6137
2023-05-18T07:08:27.193Z,71.9612
2023-05-18T07:09:35.314Z,73.2133
2023-05-18T07:10:43.325Z,74.8662
2023-05-18T07:11:51.463Z,74.4486
2023-05-18T07:12:59.393Z,74.9475
2023-05-18T07:14:07.511Z,72.5515
2023-05-18T07:15:15.608Z,73.8677
2023-05-18T07:16:23.765Z,73.9256
2023-05-18T07:17:31.604Z,72.4123
2023-05-18T07:18:39.728Z,72.3499
2023-05-18T07:19:47.709Z,72.0426
2023-05-18T07:20:56.089Z,73.5237
2023-05-18T07:22:04.022Z,72.8920
2023-05-18T07:23:12.177Z,72.0783
2023-05-18T07:24:20.075Z,71.9656
2023-05-18T07:25:28.230Z,72.6170
2023-05-18T07:26:36.289Z,74.9234
2023-05-18T07:27:44.299Z,72.9519
2023-05-18T07:28:52.448Z,73.5398
2023-05-18T07:30:00.458Z,72.2606
2023-05-18T07:31:08.584Z,73.2000
2023-05-18T07:32:16.478Z,74.0308
2023-05-18T07:33:24.537Z,74.2444
2023-05-18T07:34:32.581Z,71.2597
2023-05-18T07:35:40.768Z,72.1958
2023-05-18T07:36:48.847Z,70.3876
2023-05-18T07:37:56.984Z,72.8576
2023-05-18T07:39:05.027Z,70.1326
2023-05-18T07:40:13.066Z,70.2099
2023-05-18T07:41:21.057Z,70.3412
2023-05-18T07:42:29.195Z,76.7348
2023-05-18T07:43:37.275Z,74.9807
2023-05-18T07:44:45.318Z,70.3488
2023-05-18T07:45:53.446Z,66.8407
2023-05-18T07:47:01.634Z,65.7215
2023-05-18T07:48:09.488Z,66.9259
2023-05-18T07:49:17.551Z,65.7529
2023-05-18T07:50:25.968Z,67.3951
2023-05-18T07:51:33.760Z,67.3118
2023-05-18T07:52:41.778Z,70.6013
2023-05-18T07:53:49.925Z,70.2614
2023-05-18T07:54:58.035Z,65.8871
2023-05-18T07:56:06.052Z,65.9446
2023-05-18T07:57:14.031Z,65.9285
2023-05-18T07:58:22.163Z,66.6024
2023-05-18T07:59:30.170Z,69.5774
2023-05-18T08:00:38.288Z,67.2075
2023-05-18T08:01:46.226Z,68.4466
2023-05-18T08:02:54.316Z,65.5206
2023-05-18T08:04:02.455Z,67.2922
2023-05-18T08:05:10.517Z,68.8095
2023-05-18T08:06:18.798Z,66.5114
2023-05-18T08:07:27.086Z,67.0384
2023-05-18T08:08:34.690Z,65.4136
2023-05-18T08:09:42.832Z,66.6969
2023-05-18T08:10:50.813Z,67.4330
2023-05-18T08:11:58.918Z,67.6392
2023-05-18T08:13:07.055Z,67.9470
2023-05-18T08:14:15.020Z,68.5970
2023-05-18T08:15:23.054Z,69.0870
2023-05-18T08:16:31.014Z,65.5502
2023-05-18T08:17:39.161Z,65.6494
2023-05-18T08:18:47.244Z,66.6336
2023-05-18T08:19:55.315Z,70.4319
2023-05-18T08:21:03.332Z,68.6697
2023-05-18T08:22:11.540Z,66.7502
2023-05-18T08:23:19.507Z,66.3015
2023-05-18T08:24:27.509Z,66.8670
2023-05-18T08:25:35.588Z,69.1621
2023-05-18T08:26:43.694Z,68.3298
2023-05-18T08:27:51.732Z,68.8019
2023-05-18T08:28:59.864Z,67.9690
2023-05-18T08:30:07.983Z,68.3718
2023-05-18T08:31:15.859Z,63.6147
2023-05-18T08:32:24.122Z,65.9624
2023-05-18T08:33:31.914Z,70.0149
2023-05-18T08:34:40.179Z,65.3909
2023-05-18T08:35:48.245Z,64.9403
2023-05-18T08:36:56.209Z,65.3677
2023-05-18T08:38:05.842Z,66.4292
2023-05-18T08:39:17.219Z,64.3274
2023-05-18T08:40:25.336Z,63.9261
2023-05-18T08:41:33.313Z,62.7936
2023-05-18T08:42:49.381Z,64.7025
2023-05-18T08:43:54.223Z,62.6265
2023-05-18T08:45:02.287Z,61.2210
2023-05-18T08:46:10.405Z,60.8122
2023-05-18T08:47:18.527Z,59.0601
2023-05-18T08:48:28.430Z,59.2393
2023-05-18T08:49:39.500Z,58.4126
2023-05-18T08:50:47.667Z,58.7206
2023-05-18T08:51:55.705Z,61.0933
2023-05-18T08:53:03.751Z,62.7202
2023-05-18T08:54:12.037Z,62.4774
2023-05-18T08:55:19.907Z,63.5639
2023-05-18T08:56:27.947Z,61.0246
2023-05-18T08:57:35.870Z,59.8735
2023-05-18T08:58:43.880Z,63.4602
2023-05-18T08:59:51.959Z,59.1423
2023-05-18T09:01:00.062Z,60.2959
2023-05-18T09:02:08.291Z,65.4483
2023-05-18T09:03:16.368Z,64.9423
2023-05-18T09:04:24.369Z,60.7117
2023-05-18T09:05:32.972Z,60.6715
2023-05-18T09:06:40.463Z,63.3724
2023-05-18T09:07:48.578Z,63.0323
2023-05-18T09:08:56.674Z,62.6938
2023-05-18T09:10:04.676Z,61.5533
2023-05-18T09:11:12.709Z,64.5239
2023-05-18T09:12:22.805Z,64.2765
2023-05-18T09:13:33.598Z,60.9063
2023-05-18T09:14:41.778Z,61.4319
2023-05-18T09:15:49.845Z,61.6958
2023-05-18T09:16:57.883Z,62.4003
2023-05-18T09:18:06.045Z,64.9839
2023-05-18T09:19:14.600Z,66.6712
2023-05-18T09:20:22.159Z,63.5303
2023-05-18T09:21:30.129Z,66.2055
2023-05-18T09:22:38.222Z,61.6316
2023-05-18T09:23:46.295Z,61.4958
2023-05-18T09:24:54.306Z,63.0655
2023-05-18T09:26:02.307Z,63.8439
2023-05-18T09:27:10.271Z,64.5220
2023-05-18T09:28:18.372Z,64.2568
2023-05-18T09:29:26.530Z,63.1716
2023-05-18T09:30:34.567Z,64.9986
2023-05-18T09:31:42.735Z,65.3242
2023-05-18T09:32:50.769Z,64.7746
2023-05-18T09:33:58.969Z,65.8094
2023-05-18T09:35:07.042Z,64.8662
2023-05-18T09:36:14.964Z,63.8767
2023-05-18T09:37:23.025Z,65.8597
2023-05-18T09:38:31.142Z,64.0775
2023-05-18T09:39:39.131Z,64.9268
2023-05-18T09:40:47.070Z,65.0487
2023-05-18T09:41:55.109Z,65.9874
2023-05-18T09:43:03.211Z,65.4903
2023-05-18T09:44:11.343Z,66.2043
2023-05-18T09:45:19.550Z,67.0820
2023-05-18T09:46:27.592Z,69.2911
2023-05-18T09:47:35.546Z,65.3419
2023-05-18T09:48:43.681Z,63.6382
2023-05-18T09:49:51.767Z,67.5169
2023-05-18T09:50:59.846Z,72.2422
2023-05-18T09:52:07.810Z,67.7338
2023-05-18T09:53:15.950Z,66.7420
2023-05-18T09:54:24.481Z,68.4119
2023-05-18T09:55:32.056Z,64.5044
2023-05-18T09:56:39.950Z,63.1450
2023-05-18T09:57:48.228Z,62.0328
2023-05-18T09:58:56.243Z,60.8907
2023-05-18T10:00:04.154Z,63.0120
2023-05-18T10:01:12.364Z,59.2470
2023-05-18T10:02:20.378Z,61.2040
2023-05-18T10:03:28.452Z,61.3414
2023-05-18T10:04:36.742Z,58.9088
2023-05-18T10:05:44.663Z,60.1394
2023-05-18T10:06:52.626Z,59.1936
2023-05-18T10:08:00.851Z,58.8753
2023-05-18T10:09:08.708Z,63.0672
2023-05-18T10:10:16.685Z,60.1293
2023-05-18T10:11:24.795Z,62.3677
2023-05-18T10:12:32.810Z,60.6064
2023-05-18T10:13:41.108Z,64.8011
2023-05-18T10:14:49.040Z,63.5570
2023-05-18T10:15:57.101Z,63.8978
2023-05-18T10:17:15.210Z,66.6235
2023-05-18T10:18:18.176Z,60.3863
2023-05-18T10:19:26.392Z,60.2531
2023-05-18T10:20:34.200Z,64.0247
2023-05-18T10:21:42.355Z,59.7781
2023-05-18T10:22:50.416Z,57.9403
2023-05-18T10:23:58.285Z,61.0168
2023-05-18T10:25:06.328Z,61.2074
2023-05-18T10:26:14.600Z,61.3058
2023-05-18T10:27:22.774Z,60.9984
2023-05-18T10:28:30.725Z,58.1777
2023-05-18T10:29:38.740Z,59.6436
2023-05-18T10:30:46.816Z,53.9839
2023-05-18T10:31:54.966Z,51.2420
2023-05-18T10:33:04.017Z,54.6493
2023-05-18T10:34:15.832Z,54.1938
2023-05-18T10:35:23.914Z,50.0851
2023-05-18T10:36:31.964Z,54.5375
2023-05-18T10:37:39.888Z,50.4438
2023-05-18T10:38:47.963Z,50.5074
2023-05-18T10:39:56.077Z,51.1571
2023-05-18T10:41:04.198Z,49.4067
2023-05-18T10:42:12.267Z,49.0104
2023-05-18T10:43:21.837Z,47.8465
2023-05-18T10:44:33.246Z,53.1330
2023-05-18T10:45:41.351Z,55.8226
2023-05-18T10:46:49.405Z,54.4543
2023-05-18T10:47:57.429Z,58.6097
2023-05-18T10:49:05.467Z,53.7988
2023-05-18T10:50:13.659Z,54.2419
2023-05-18T10:51:21.522Z,61.6219
2023-05-18T10:52:29.528Z,57.8081
2023-05-18T10:53:37.639Z,55.6512
2023-05-18T10:54:45.658Z,57.7811
2023-05-18T10:55:53.872Z,56.2491
2023-05-18T10:57:01.988Z,58.6767
2023-05-18T10:58:09.978Z,58.0227
2023-05-18T10:59:18.049Z,59.2385
2023-05-18T11:00:26.125Z,60.3519
2023-05-18T11:01:34.264Z,61.2027
2023-05-18T11:02:42.623Z,60.9327
2023-05-18T11:03:50.279Z,62.1098
2023-05-18T11:04:58.331Z,61.6206
2023-05-18T11:06:06.515Z,62.1820
2023-05-18T11:07:14.371Z,60.8925
2023-05-18T11:08:22.476Z,60.5915
2023-05-18T11:09:31.057Z,63.9414
2023-05-18T11:10:38.699Z,65.4126
2023-05-18T11:11:46.767Z,62.2196
2023-05-18T11:12:54.818Z,60.4567
2023-05-18T11:14:03.102Z,61.3795
2023-05-18T11:15:11.205Z,60.5637
2023-05-18T11:16:19.109Z,62.4937
2023-05-18T11:17:27.121Z,62.6701
2023-05-18T11:18:35.092Z,68.4832
2023-05-18T11:19:43.252Z,69.1529
2023-05-18T11:20:51.262Z,59.9478
2023-05-18T11:21:59.190Z,60.1113
2023-05-18T11:23:07.258Z,60.2450
2023-05-18T11:24:15.318Z,63.6330
2023-05-18T11:25:23.544Z,63.4797
2023-05-18T11:26:31.542Z,61.0873
2023-05-18T11:27:39.618Z,59.0628
2023-05-18T11:28:49.474Z,58.1146
2023-05-18T11:30:14.897Z,62.2274
2023-05-18T11:31:13.707Z,60.3899
2023-05-18T11:32:29.249Z,64.0944
2023-05-18T11:33:34.434Z,58.3331
2023-05-18T11:34:42.530Z,59.2391
2023-05-18T11:35:50.546Z,60.5405
2023-05-18T11:36:58.768Z,62.6957
2023-05-18T11:38:06.783Z,63.0037
2023-05-18T11:39:14.727Z,57.8250
2023-05-18T11:40:23.046Z,60.9542
2023-05-18T11:41:31.013Z,60.7113
2023-05-18T11:42:39.086Z,58.9262
2023-05-18T11:43:47.100Z,57.3218
2023-05-18T11:44:55.191Z,63.3285
2023-05-18T11:46:03.268Z,60.8865
2023-05-18T11:47:11.520Z,59.8918
2023-05-18T11:48:19.453Z,60.5259
2023-05-18T11:49:27.282Z,59.3198
2023-05-18T11:50:35.366Z,62.5271
2023-05-18T11:51:43.567Z,60.8226
2023-05-18T11:52:51.579Z,60.3742
2023-05-18T11:53:59.740Z,65.5923
2023-05-18T11:55:07.781Z,63.7163
2023-05-18T11:56:15.993Z,68.0058
2023-05-18T11:57:23.972Z,64.0768
2023-05-18T11:58:31.976Z,63.2680
2023-05-18T11:59:40.132Z,60.3357
2023-05-18T12:00:48.072Z,59.8364
2023-05-18T12:01:56.286Z,62.4587
2023-05-18T12:03:04.581Z,65.7557
2023-05-18T12:04:12.287Z,59.5629
2023-05-18T12:05:20.312Z,60.3845
2023-05-18T12:06:28.438Z,63.3221
2023-05-18T12:07:36.536Z,59.1386
2023-05-18T12:08:44.586Z,63.0822
2023-05-18T12:09:52.658Z,66.3352
2023-05-18T12:11:00.767Z,62.5109
2023-05-18T12:12:08.649Z,60.4954
2023-05-18T12:13:16.885Z,59.2239
2023-05-18T12:14:24.922Z,56.0102
2023-05-18T12:15:32.935Z,56.9365
2023-05-18T12:16:41.036Z,58.6419
2023-05-18T12:17:49.020Z,61.9893
2023-05-18T12:18:57.059Z,66.4736
2023-05-18T12:20:05.081Z,59.7932
2023-05-18T12:21:13.276Z,58.7716
2023-05-18T12:22:21.402Z,60.8719
2023-05-18T12:23:29.283Z,64.8153
2023-05-18T12:24:37.499Z,63.1992
2023-05-18T12:25:45.522Z,58.9443
2023-05-18T12:26:53.575Z,60.7425
2023-05-18T12:28:01.666Z,60.6347
2023-05-18T12:29:09.670Z,58.5602
2023-05-18T12:30:17.960Z,61.6281
2023-05-18T12:31:25.883Z,62.3596
2023-05-18T12:32:33.759Z,62.2716
2023-05-18T12:33:41.852Z,61.5955
2023-05-18T12:34:49.885Z,58.8741
2023-05-18T12:35:58.051Z,63.1856
2023-05-18T12:37:06.087Z,60.8722
2023-05-18T12:38:14.175Z,62.2298
2023-05-18T12:39:22.282Z,63.1310
2023-05-18T12:40:30.314Z,62.6588
2023-05-18T12:41:38.426Z,63.5525
2023-05-18T12:42:46.455Z,63.7262
2023-05-18T12:43:54.448Z,60.9089
2023-05-18T12:45:03.904Z,60.1058
2023-05-18T12:46:15.386Z,58.7620
2023-05-18T12:47:23.438Z,61.5705
2023-05-18T12:48:31.468Z,57.3120
2023-05-18T12:49:39.642Z,63.6793
2023-05-18T12:50:47.866Z,60.8444
2023-05-18T12:51:55.792Z,62.9217
2023-05-18T12:53:03.854Z,58.8970
2023-05-18T12:54:11.929Z,61.1153
2023-05-18T12:55:19.969Z,60.6518
2023-05-18T12:56:28.060Z,59.7480
2023-05-18T12:57:36.046Z,60.1613
2023-05-18T12:58:44.160Z,67.1308
2023-05-18T12:59:52.193Z,68.2550
2023-05-18T13:01:00.124Z,71.2172
2023-05-18T13:02:08.278Z,62.4927
2023-05-18T13:03:16.621Z,59.5182
2023-05-18T13:04:24.589Z,66.3133
2023-05-18T13:05:32.799Z,59.3282
2023-05-18T13:06:40.534Z,58.9276
2023-05-18T13:07:48.669Z,60.2940
2023-05-18T13:08:56.664Z,62.8879
2023-05-18T13:10:04.720Z,62.8160
2023-05-18T13:11:14.990Z,59.4600
2023-05-18T13:12:25.703Z,63.6383
2023-05-18T13:13:33.843Z,61.3659
2023-05-18T13:14:41.719Z,59.7024
2023-05-18T13:15:49.820Z,60.1823
2023-05-18T13:16:57.878Z,60.3012
2023-05-18T13:18:06.120Z,61.0579
2023-05-18T13:19:14.066Z,62.9507
2023-05-18T13:20:22.013Z,61.4075
2023-05-18T13:21:30.269Z,64.6600
2023-05-18T13:22:38.253Z,61.6275
2023-05-18T13:23:46.580Z,62.6609
2023-05-18T13:24:54.504Z,61.1371
2023-05-18T13:26:02.450Z,64.0417
2023-05-18T13:27:10.500Z,63.5632
2023-05-18T13:28:18.627Z,60.8996
2023-05-18T13:29:26.530Z,61.0453
2023-05-18T13:30:34.631Z,63.5758
2023-05-18T13:31:42.697Z,59.3871
2023-05-18T13:32:50.837Z,57.8217
2023-05-18T13:33:58.880Z,59.6343
2023-05-18T13:35:06.975Z,59.9670
2023-05-18T13:36:15.084Z,65.7430
2023-05-18T13:37:23.096Z,64.6960
2023-05-18T13:38:31.146Z,58.8854
2023-05-18T13:39:39.319Z,59.8185
2023-05-18T13:40:47.292Z,61.6962
2023-05-18T13:41:55.388Z,61.0561
2023-05-18T13:43:03.445Z,60.0925
2023-05-18T13:44:11.313Z,64.0711
2023-05-18T13:45:19.390Z,59.3974